createdAt,value
2024-03-04T00:02:19.717Z,28.13
2024-03-04T00:04:46.961Z,25.00
2024-03-04T00:07:14.075Z,28.90
2024-03-04T00:09:41.427Z,25.55
2024-03-04T00:12:08.635Z,31.60
2024-03-04T00:14:36.192Z,32.25
2024-03-04T00:17:03.139Z,29.35
2024-03-04T00:19:30.760Z,28.40
2024-03-04T00:21:57.800Z,30.52
2024-03-04T00:24:25.076Z,28.02
2024-03-04T00:26:51.988Z,35.33
2024-03-04T00:29:19.234Z,28.33
2024-03-04T00:31:46.392Z,31.35
2024-03-04T00:34:14.133Z,27.65
2024-03-04T00:36:41.152Z,31.98
2024-03-04T00:39:10.822Z,26.40
2024-03-04T00:41:37.944Z,25.55
2024-03-04T00:44:05.633Z,27.10
2024-03-04T00:46:33.241Z,27.55
2024-03-04T00:49:00.422Z,25.80
2024-03-04T00:51:27.396Z,24.90
2024-03-04T00:53:54.709Z,26.58
2024-03-04T00:56:22.325Z,27.88
2024-03-04T00:58:50.478Z,28.38
2024-03-04T01:01:17.516Z,24.38
2024-03-04T01:03:44.713Z,27.80
2024-03-04T01:06:11.721Z,26.33
2024-03-04T01:08:39.500Z,30.13
2024-03-04T01:11:06.875Z,27.00
2024-03-04T01:13:34.387Z,32.70
2024-03-04T01:16:01.548Z,35.50
2024-03-04T01:18:30.660Z,31.35
2024-03-04T01:20:58.067Z,32.25
2024-03-04T01:23:25.275Z,30.50
2024-03-04T01:25:52.250Z,30.27
2024-03-04T01:28:19.510Z,33.10
2024-03-04T01:30:49.077Z,28.05
2024-03-04T01:33:18.131Z,36.20
2024-03-04T01:35:45.009Z,33.83
2024-03-04T01:38:12.234Z,31.27
2024-03-04T01:40:39.193Z,30.25
2024-03-04T01:43:07.480Z,32.97
2024-03-04T01:45:34.626Z,34.40
2024-03-04T01:48:05.042Z,31.77
2024-03-04T01:50:40.164Z,32.28
2024-03-04T01:53:09.759Z,32.13
2024-03-04T01:55:43.593Z,31.17
2024-03-04T01:58:13.846Z,33.60
2024-03-04T02:00:45.705Z,34.72
2024-03-04T02:03:16.562Z,34.22
2024-03-04T02:05:49.946Z,31.38
2024-03-04T02:08:18.483Z,29.27
2024-03-04T02:10:45.830Z,28.45
2024-03-04T02:13:13.504Z,31.95
2024-03-04T02:15:40.683Z,33.95
2024-03-04T02:18:09.421Z,31.38
2024-03-04T02:20:43.844Z,32.17
2024-03-04T02:23:13.766Z,33.33
2024-03-04T02:25:55.955Z,37.75
2024-03-04T02:28:24.677Z,32.58
2024-03-04T02:30:52.232Z,39.75
2024-03-04T02:33:22.838Z,32.85
2024-03-04T02:35:51.136Z,34.20
2024-03-04T02:38:19.816Z,32.45
2024-03-04T02:40:50.203Z,34.42
2024-03-04T02:43:19.101Z,30.90
2024-03-04T02:45:46.318Z,35.60
2024-03-04T02:48:14.496Z,36.30
2024-03-04T02:50:41.472Z,31.65
2024-03-04T02:53:09.929Z,34.90
2024-03-04T02:55:38.580Z,32.10
2024-03-04T02:58:07.750Z,30.83
2024-03-04T03:00:35.504Z,33.38
2024-03-04T03:03:02.829Z,30.95
2024-03-04T03:05:29.929Z,32.53
2024-03-04T03:07:57.258Z,29.92
2024-03-04T03:10:24.635Z,30.63
2024-03-04T03:12:52.057Z,31.88
2024-03-04T03:15:18.939Z,34.95
2024-03-04T03:17:46.109Z,34.38
2024-03-04T03:20:19.476Z,34.95
2024-03-04T03:22:50.158Z,35.60
2024-03-04T03:25:17.980Z,30.50
2024-03-04T03:27:45.609Z,32.38
2024-03-04T03:30:13.388Z,31.75
2024-03-04T03:32:41.406Z,32.58
2024-03-04T03:35:09.281Z,31.45
2024-03-04T03:37:36.967Z,32.80
2024-03-04T03:40:05.426Z,30.70
2024-03-04T03:42:35.346Z,31.70
2024-03-04T03:45:02.489Z,26.70
2024-03-04T03:47:31.746Z,32.10
2024-03-04T03:49:58.953Z,32.65
2024-03-04T03:52:26.524Z,34.20
2024-03-04T03:54:53.520Z,32.45
2024-03-04T03:57:20.743Z,30.83
2024-03-04T03:59:48.108Z,30.40
2024-03-04T04:02:15.448Z,29.70
2024-03-04T04:04:42.437Z,30.98
2024-03-04T04:07:10.715Z,30.88
2024-03-04T04:09:37.744Z,35.70
2024-03-04T04:12:05.318Z,29.58
2024-03-04T04:14:32.223Z,32.33
2024-03-04T04:16:59.377Z,40.30
2024-03-04T04:19:26.385Z,36.50
2024-03-04T04:21:53.986Z,32.08
2024-03-04T04:24:20.927Z,33.75
2024-03-04T04:26:48.149Z,33.40
2024-03-04T04:29:15.100Z,31.73
2024-03-04T04:31:42.403Z,27.73
2024-03-04T04:34:09.357Z,31.13
2024-03-04T04:36:36.994Z,30.48
2024-03-04T04:39:04.078Z,28.30
2024-03-04T04:41:35.029Z,33.10
2024-03-04T04:44:03.051Z,32.20
2024-03-04T04:46:30.405Z,32.40
2024-03-04T04:48:57.385Z,30.60
2024-03-04T04:51:24.726Z,33.35
2024-03-04T04:53:54.460Z,29.95
2024-03-04T04:56:22.886Z,32.70
2024-03-04T04:58:49.976Z,34.10
2024-03-04T05:01:30.499Z,31.23
2024-03-04T05:06:28.409Z,30.83
2024-03-04T05:08:55.368Z,32.72
2024-03-04T05:11:23.876Z,31.50
2024-03-04T05:13:50.956Z,30.50
2024-03-04T05:16:18.138Z,30.58
2024-03-04T05:18:45.033Z,32.08
2024-03-04T05:21:13.152Z,29.13
2024-03-04T05:23:40.355Z,32.00
2024-03-04T05:26:07.555Z,33.58
2024-03-04T05:28:34.574Z,30.70
2024-03-04T05:31:01.950Z,30.88
2024-03-04T05:33:28.922Z,29.30
2024-03-04T05:35:56.164Z,30.58
2024-03-04T05:38:24.252Z,27.67
2024-03-04T05:40:51.751Z,32.22
2024-03-04T05:43:19.364Z,32.30
2024-03-04T05:45:46.989Z,32.30
2024-03-04T05:48:14.379Z,34.80
2024-03-04T05:50:41.904Z,31.45
2024-03-04T05:53:08.810Z,30.92
2024-03-04T05:55:36.705Z,32.40
2024-03-04T05:58:04.898Z,33.47
2024-03-04T06:00:33.588Z,32.17
2024-03-04T06:03:00.739Z,34.08
2024-03-04T06:05:28.457Z,34.83
2024-03-04T06:07:59.893Z,39.05
2024-03-04T06:10:28.784Z,31.48
2024-03-04T06:12:55.819Z,36.35
2024-03-04T06:15:23.079Z,48.42
2024-03-04T06:17:50.616Z,39.25
2024-03-04T06:20:17.846Z,36.17
2024-03-04T06:22:44.846Z,36.03
2024-03-04T06:25:12.112Z,44.70
2024-03-04T06:27:39.192Z,38.95
2024-03-04T06:30:12.281Z,39.03
2024-03-04T06:32:39.390Z,38.00
2024-03-04T06:35:07.568Z,44.42
2024-03-04T06:37:34.822Z,41.13
2024-03-04T06:40:02.362Z,48.55
2024-03-04T06:42:30.100Z,47.58
2024-03-04T06:44:57.450Z,49.55
2024-03-04T06:47:24.420Z,50.90
2024-03-04T06:49:52.396Z,41.60
2024-03-04T06:52:19.372Z,40.95
2024-03-04T06:54:51.051Z,45.47
2024-03-04T06:57:18.801Z,46.17
2024-03-04T06:59:46.398Z,40.10
2024-03-04T07:02:13.488Z,45.03
2024-03-04T07:04:40.920Z,39.83
2024-03-04T07:07:07.962Z,46.03
2024-03-04T07:09:35.311Z,44.38
2024-03-04T07:12:02.181Z,46.45
2024-03-04T07:14:29.426Z,44.40
2024-03-04T07:16:56.432Z,42.50
2024-03-04T07:19:24.838Z,36.28
2024-03-04T07:21:51.813Z,41.53
2024-03-04T07:24:19.089Z,36.53
2024-03-04T07:26:46.135Z,31.83
2024-03-04T07:29:20.217Z,34.72
2024-03-04T07:31:51.338Z,40.70
2024-03-04T07:34:19.006Z,30.58
2024-03-04T07:36:46.070Z,31.58
2024-03-04T07:39:13.300Z,42.33
2024-03-04T07:41:40.188Z,35.95
2024-03-04T07:44:07.561Z,34.20
2024-03-04T07:46:34.794Z,39.20
2024-03-04T07:49:02.098Z,34.95
2024-03-04T07:51:29.120Z,35.63
2024-03-04T07:53:56.591Z,37.22
2024-03-04T07:56:23.541Z,37.15
2024-03-04T07:58:50.816Z,35.28
2024-03-04T08:01:17.960Z,36.80
2024-03-04T08:03:46.557Z,40.47
2024-03-04T08:06:13.862Z,31.85
2024-03-04T08:08:41.068Z,34.17
2024-03-04T08:11:08.268Z,36.10
2024-03-04T08:13:35.569Z,38.90
2024-03-04T08:16:02.729Z,40.63
2024-03-04T08:18:30.059Z,43.80
2024-03-04T08:20:57.308Z,38.53
2024-03-04T08:23:24.491Z,53.22
2024-03-04T08:25:53.114Z,52.78
2024-03-04T08:28:28.582Z,54.28
2024-03-04T08:31:02.275Z,46.50
2024-03-04T08:33:29.500Z,47.17
2024-03-04T08:35:56.486Z,47.30
2024-03-04T08:38:24.845Z,46.70
2024-03-04T08:40:51.867Z,64.57
2024-03-04T08:43:19.185Z,55.20
2024-03-04T08:45:46.118Z,54.90
2024-03-04T08:48:13.276Z,63.33
2024-03-04T08:50:40.266Z,49.28
2024-03-04T08:53:07.465Z,57.08
2024-03-04T08:55:34.478Z,51.58
2024-03-04T08:58:02.381Z,54.90
2024-03-04T09:00:29.318Z,47.35
2024-03-04T09:02:56.594Z,57.50
2024-03-04T09:05:23.756Z,51.00
2024-03-04T09:07:51.044Z,41.85
2024-03-04T09:10:18.536Z,42.28
2024-03-04T09:12:48.809Z,49.65
2024-03-04T09:15:17.862Z,46.30
2024-03-04T09:17:45.157Z,47.30
2024-03-04T09:20:12.322Z,55.03
2024-03-04T09:22:41.904Z,71.05
2024-03-04T09:25:09.348Z,55.10
2024-03-04T09:27:37.831Z,52.53
2024-03-04T09:30:07.704Z,53.35
2024-03-04T09:32:35.536Z,56.38
2024-03-04T09:35:06.408Z,53.55
2024-03-04T09:37:33.957Z,56.95
2024-03-04T09:40:01.013Z,57.17
2024-03-04T09:42:32.258Z,52.88
2024-03-04T09:45:00.571Z,55.45
2024-03-04T09:47:28.765Z,56.60
2024-03-04T09:49:57.753Z,50.65
2024-03-04T09:52:28.473Z,50.47
2024-03-04T09:55:01.161Z,54.80
2024-03-04T09:57:29.827Z,50.30
2024-03-04T09:59:59.581Z,49.63
2024-03-04T10:02:26.913Z,46.72
2024-03-04T10:04:54.089Z,48.33
2024-03-04T10:07:21.393Z,45.80
2024-03-04T10:09:48.364Z,48.60
2024-03-04T10:12:15.582Z,46.80
2024-03-04T10:15:01.239Z,53.05
2024-03-04T10:17:29.097Z,47.90
2024-03-04T10:20:07.734Z,49.72
2024-03-04T10:22:35.691Z,48.67
2024-03-04T10:25:11.650Z,52.90
2024-03-04T10:27:42.467Z,58.22
2024-03-04T10:30:26.349Z,56.60
2024-03-04T10:32:57.304Z,70.28
2024-03-04T10:35:29.586Z,58.03
2024-03-04T10:38:03.847Z,53.55
2024-03-04T10:40:34.755Z,45.78
2024-03-04T10:43:02.358Z,48.60
2024-03-04T10:45:33.606Z,43.63
2024-03-04T10:48:04.901Z,51.55
2024-03-04T10:50:32.380Z,44.75
2024-03-04T10:53:03.157Z,42.15
2024-03-04T10:55:31.987Z,44.50
2024-03-04T10:58:03.803Z,45.53
2024-03-04T11:00:38.550Z,43.45
2024-03-04T11:03:14.400Z,40.97
2024-03-04T11:05:46.080Z,37.95
2024-03-04T11:08:21.182Z,39.95
2024-03-04T11:10:52.703Z,48.20
2024-03-04T11:13:26.188Z,42.47
2024-03-04T11:16:05.556Z,43.30
2024-03-04T11:19:20.849Z,42.90
2024-03-04T11:21:48.603Z,44.00
2024-03-04T11:24:17.828Z,38.30
2024-03-04T11:26:46.645Z,38.40
2024-03-04T11:29:15.877Z,39.55
2024-03-04T11:31:55.134Z,39.58
2024-03-04T11:34:22.563Z,38.83
2024-03-04T11:36:54.449Z,39.95
2024-03-04T11:39:23.014Z,36.00
2024-03-04T11:41:57.011Z,38.50
2024-03-04T11:44:24.561Z,39.23
2024-03-04T11:46:51.986Z,37.50
2024-03-04T11:49:33.973Z,36.40
2024-03-04T11:52:21.639Z,41.08
2024-03-04T11:54:50.147Z,42.22
2024-03-04T11:57:18.654Z,36.95
2024-03-04T12:00:04.008Z,36.10
2024-03-04T12:02:31.470Z,36.50
2024-03-04T12:04:59.785Z,38.22
2024-03-04T12:07:27.357Z,39.25
2024-03-04T12:10:08.922Z,34.97
2024-03-04T12:12:43.103Z,33.65
2024-03-04T12:15:13.655Z,36.53
2024-03-04T12:17:41.423Z,40.08
2024-03-04T12:20:09.711Z,40.08
2024-03-04T12:22:38.928Z,31.45
2024-03-04T12:25:12.254Z,35.38
2024-03-04T12:27:43.584Z,31.25
2024-03-04T12:30:18.552Z,34.30
2024-03-04T12:32:51.866Z,29.98
2024-03-04T12:35:33.649Z,32.03
2024-03-04T12:38:03.609Z,28.98
2024-03-04T12:40:31.099Z,31.50
2024-03-04T12:43:04.696Z,34.92
2024-03-04T12:45:34.572Z,32.70
2024-03-04T12:48:02.340Z,29.20
2024-03-04T12:50:30.944Z,28.20
2024-03-04T12:52:59.740Z,32.53
2024-03-04T12:55:28.039Z,33.53
2024-03-04T12:57:57.672Z,30.23
2024-03-04T13:00:26.318Z,31.40
2024-03-04T13:02:53.447Z,34.83
2024-03-04T13:05:20.668Z,34.65
2024-03-04T13:07:48.116Z,36.72
2024-03-04T13:10:16.488Z,38.70
2024-03-04T13:12:46.071Z,36.00
2024-03-04T13:15:13.848Z,32.25
2024-03-04T13:17:46.424Z,31.40
2024-03-04T13:20:16.788Z,29.15
2024-03-04T13:22:50.327Z,38.25
2024-03-04T13:25:19.357Z,30.20
2024-03-04T13:27:47.945Z,27.35
2024-03-04T13:30:15.745Z,27.63
2024-03-04T13:32:43.128Z,28.45
2024-03-04T13:35:11.161Z,32.80
2024-03-04T13:37:39.567Z,29.60
2024-03-04T13:40:12.105Z,25.70
2024-03-04T13:42:39.581Z,26.08
2024-03-04T13:45:10.020Z,25.23
2024-03-04T13:47:37.593Z,32.38
2024-03-04T13:50:05.772Z,30.55
2024-03-04T13:52:33.342Z,27.40
2024-03-04T13:55:01.175Z,21.38
2024-03-04T13:57:28.448Z,24.15
2024-03-04T13:59:55.685Z,25.67
2024-03-04T14:02:22.929Z,22.55
2024-03-04T14:04:50.344Z,17.88
2024-03-04T14:07:17.543Z,23.05
2024-03-04T14:09:44.789Z,19.08
2024-03-04T14:12:11.766Z,20.30
2024-03-04T14:14:38.976Z,18.35
2024-03-04T14:17:07.103Z,16.88
2024-03-04T14:19:34.540Z,13.70
2024-03-04T14:22:01.450Z,16.55
2024-03-04T14:24:29.006Z,16.60
2024-03-04T14:26:56.002Z,16.00
2024-03-04T14:29:23.204Z,13.68
2024-03-04T14:31:53.283Z,13.25
2024-03-04T14:34:21.071Z,15.32
2024-03-04T14:36:48.183Z,17.10
2024-03-04T14:39:15.397Z,15.82
2024-03-04T14:41:42.300Z,14.30
2024-03-04T14:44:10.199Z,15.02
2024-03-04T14:46:37.344Z,12.85
2024-03-04T14:49:04.690Z,12.18
2024-03-04T14:51:31.631Z,12.23
2024-03-04T14:53:58.957Z,11.27
2024-03-04T14:56:29.765Z,13.57
2024-03-04T14:58:57.612Z,13.52
2024-03-04T15:01:25.238Z,8.35
2024-03-04T15:03:52.558Z,12.60
2024-03-04T15:06:19.916Z,11.00
2024-03-04T15:08:50.125Z,7.55
2024-03-04T15:11:17.255Z,6.30
2024-03-04T15:13:45.372Z,6.10
2024-03-04T15:16:12.768Z,7.50
2024-03-04T15:18:41.279Z,8.98
2024-03-04T15:21:08.809Z,10.18
2024-03-04T15:23:36.577Z,5.93
2024-03-04T15:26:03.852Z,8.15
2024-03-04T15:28:31.670Z,6.28
2024-03-04T15:30:58.770Z,9.23
2024-03-04T15:33:26.144Z,7.90
2024-03-04T15:35:57.029Z,8.82
2024-03-04T15:38:30.352Z,8.70
2024-03-04T15:41:01.203Z,7.75
2024-03-04T15:43:28.596Z,7.60
2024-03-04T15:45:55.767Z,7.47
2024-03-04T15:48:23.039Z,8.43
2024-03-04T15:50:50.879Z,6.72
2024-03-04T15:53:18.192Z,5.80
2024-03-04T15:55:45.291Z,6.15
2024-03-04T15:58:12.666Z,6.53
2024-03-04T16:00:40.839Z,12.70
2024-03-04T16:03:08.350Z,5.18
2024-03-04T16:05:35.808Z,5.53
2024-03-04T16:08:04.921Z,7.47
2024-03-04T16:10:32.189Z,7.18
2024-03-04T16:12:59.729Z,5.95
2024-03-04T16:15:37.821Z,8.10
2024-03-04T16:18:12.653Z,6.00
2024-03-04T16:20:40.127Z,6.05
2024-03-04T16:23:08.371Z,5.32
2024-03-04T16:25:35.380Z,7.30
2024-03-04T16:28:02.758Z,8.50
2024-03-04T16:30:29.786Z,6.60
2024-03-04T16:32:57.415Z,8.88
2024-03-04T16:35:28.421Z,5.35
2024-03-04T16:37:59.358Z,5.95
2024-03-04T16:40:26.480Z,6.18
2024-03-04T16:42:54.007Z,8.57
2024-03-04T16:45:21.074Z,7.05
2024-03-04T16:47:48.518Z,8.05
2024-03-04T16:50:18.621Z,6.55
2024-03-04T16:52:46.298Z,8.93
2024-03-04T16:55:13.812Z,7.43
2024-03-04T16:57:41.384Z,6.82
2024-03-04T17:00:12.664Z,6.47
2024-03-04T17:02:40.063Z,5.95
2024-03-04T17:05:11.651Z,9.88
2024-03-04T17:07:43.421Z,6.95
2024-03-04T17:10:14.959Z,10.95
2024-03-04T17:12:42.559Z,9.18
2024-03-04T17:15:12.823Z,12.75
2024-03-04T17:17:40.619Z,8.63
2024-03-04T17:20:11.563Z,12.05
2024-03-04T17:22:39.637Z,11.05
2024-03-04T17:25:07.703Z,10.88
2024-03-04T17:27:35.877Z,8.32
2024-03-04T17:30:04.613Z,8.32
2024-03-04T17:32:32.977Z,8.18
2024-03-04T17:35:01.934Z,9.75
2024-03-04T17:37:30.470Z,10.05
2024-03-04T17:39:57.999Z,13.27
2024-03-04T17:42:27.211Z,14.77
2024-03-04T17:44:55.637Z,10.38
2024-03-04T17:47:22.997Z,10.05
2024-03-04T17:49:50.811Z,12.13
2024-03-04T17:52:18.624Z,11.82
2024-03-04T17:54:46.073Z,11.73
2024-03-04T17:57:13.836Z,10.00
2024-03-04T17:59:42.034Z,12.02
2024-03-04T18:02:10.690Z,11.27
2024-03-04T18:04:42.620Z,10.70
2024-03-04T18:07:10.019Z,15.52
2024-03-04T18:09:37.134Z,16.80
2024-03-04T18:12:04.768Z,17.35
2024-03-04T18:14:31.726Z,18.88
2024-03-04T18:16:59.341Z,17.25
2024-03-04T18:19:26.800Z,15.10
2024-03-04T18:21:54.085Z,22.77
2024-03-04T18:24:21.064Z,16.60
2024-03-04T18:26:48.508Z,18.50
2024-03-04T18:29:16.358Z,22.38
2024-03-04T18:31:43.710Z,20.17
2024-03-04T18:34:13.356Z,18.92
2024-03-04T18:36:45.160Z,17.90
2024-03-04T18:39:14.166Z,21.55
2024-03-04T18:41:41.920Z,20.90
2024-03-04T18:44:09.079Z,25.50
2024-03-04T18:46:36.511Z,21.27
2024-03-04T18:49:03.633Z,27.58
2024-03-04T18:51:31.620Z,24.55
2024-03-04T18:53:59.773Z,25.90
2024-03-04T18:56:27.344Z,27.10
2024-03-04T18:58:54.605Z,27.48
2024-03-04T19:01:28.024Z,26.50
2024-03-04T19:03:55.353Z,25.50
2024-03-04T19:06:23.891Z,24.95
2024-03-04T19:08:51.060Z,28.92
2024-03-04T19:11:19.001Z,24.83
2024-03-04T19:13:47.468Z,27.10
2024-03-04T19:16:15.415Z,28.73
2024-03-04T19:18:42.568Z,28.92
2024-03-04T19:21:19.688Z,32.15
2024-03-04T19:23:46.967Z,28.42
2024-03-04T19:26:21.951Z,33.60
2024-03-04T19:28:51.669Z,36.38
2024-03-04T19:31:24.084Z,31.60
2024-03-04T19:33:55.253Z,31.85
2024-03-04T19:36:25.956Z,32.72
2024-03-04T19:38:54.518Z,31.63
2024-03-04T19:41:27.712Z,39.22
2024-03-04T19:43:55.296Z,36.38
2024-03-04T19:46:27.008Z,42.28
2024-03-04T19:48:54.740Z,33.60
2024-03-04T19:51:23.693Z,35.85
2024-03-04T19:53:52.338Z,33.92
2024-03-04T19:56:20.119Z,33.80
2024-03-04T19:58:47.605Z,45.03
2024-03-04T20:01:15.178Z,39.65
2024-03-04T20:03:44.349Z,38.80
2024-03-04T20:06:12.627Z,33.42
2024-03-04T20:08:41.962Z,41.30
2024-03-04T20:11:13.277Z,42.80
2024-03-04T20:13:43.196Z,40.60
2024-03-04T20:16:13.958Z,39.70
2024-03-04T20:18:42.453Z,41.13
2024-03-04T20:21:12.867Z,42.65
2024-03-04T20:23:40.170Z,42.35
2024-03-04T20:26:08.055Z,42.05
2024-03-04T20:28:35.232Z,47.22
2024-03-04T20:31:03.800Z,44.72
2024-03-04T20:33:31.771Z,41.33
2024-03-04T20:35:59.147Z,46.35
2024-03-04T20:38:26.782Z,42.78
2024-03-04T20:40:54.552Z,49.17
2024-03-04T20:43:21.886Z,57.38
2024-03-04T20:45:49.188Z,46.15
2024-03-04T20:48:18.638Z,49.15
2024-03-04T20:50:48.738Z,54.85
2024-03-04T20:53:15.689Z,54.08
2024-03-04T20:55:45.292Z,55.72
2024-03-04T20:58:12.507Z,56.38
2024-03-04T21:00:39.997Z,59.20
2024-03-04T21:03:07.674Z,61.45
2024-03-04T21:05:37.016Z,60.55
2024-03-04T21:08:06.492Z,62.08
2024-03-04T21:10:34.004Z,63.47
2024-03-04T21:13:01.110Z,61.97
2024-03-04T21:15:28.278Z,63.65
2024-03-04T21:17:58.102Z,65.30
2024-03-04T21:20:27.583Z,64.95
2024-03-04T21:22:55.846Z,63.53
2024-03-04T21:25:23.909Z,67.35
2024-03-04T21:27:53.548Z,70.97
2024-03-04T21:30:22.477Z,66.50
2024-03-04T21:32:49.937Z,69.80
2024-03-04T21:35:17.327Z,65.68
2024-03-04T21:37:44.472Z,62.55
2024-03-04T21:40:12.836Z,76.45
2024-03-04T21:42:41.022Z,67.85
2024-03-04T21:45:09.781Z,72.88
2024-03-04T21:47:37.074Z,70.45
2024-03-04T21:50:08.599Z,74.30
2024-03-04T21:52:37.146Z,76.45
2024-03-04T21:55:05.511Z,74.43
2024-03-04T21:57:32.500Z,73.18
2024-03-04T21:59:59.775Z,75.97
2024-03-04T22:02:26.832Z,79.28
2024-03-04T22:04:54.194Z,72.68
2024-03-04T22:07:21.362Z,75.65
2024-03-04T22:09:48.700Z,77.25
2024-03-04T22:12:15.666Z,76.05
2024-03-04T22:14:42.965Z,81.30
2024-03-04T22:17:11.562Z,78.45
2024-03-04T22:19:38.945Z,82.00
2024-03-04T22:22:05.901Z,78.18
2024-03-04T22:24:33.118Z,78.90
2024-03-04T22:27:00.017Z,76.57
2024-03-04T22:29:28.060Z,82.25
2024-03-04T22:31:55.171Z,73.60
2024-03-04T22:34:24.113Z,75.20
2024-03-04T22:36:51.119Z,71.65
2024-03-04T22:39:18.252Z,70.40
2024-03-04T22:41:47.056Z,72.20
2024-03-04T22:44:16.361Z,76.95
2024-03-04T22:46:44.793Z,71.22
2024-03-04T22:49:12.258Z,77.22
2024-03-04T22:51:39.404Z,72.43
2024-03-04T22:54:06.635Z,78.15
2024-03-04T22:56:34.237Z,77.88
2024-03-04T22:59:01.818Z,75.35
2024-03-04T23:01:32.505Z,78.90
2024-03-04T23:04:00.147Z,78.85
2024-03-04T23:06:27.233Z,78.53
2024-03-04T23:08:54.774Z,75.88
2024-03-04T23:11:22.406Z,71.65
2024-03-04T23:13:50.361Z,71.90
2024-03-04T23:16:17.631Z,73.35
2024-03-04T23:18:44.888Z,75.70
2024-03-04T23:21:11.982Z,79.13
2024-03-04T23:23:39.686Z,74.15
2024-03-04T23:26:08.093Z,76.53
2024-03-04T23:28:39.045Z,72.35
2024-03-04T23:31:06.110Z,74.05
2024-03-04T23:33:33.380Z,69.75
2024-03-04T23:36:00.313Z,73.60
2024-03-04T23:38:28.115Z,75.03
2024-03-04T23:40:55.548Z,76.38
2024-03-04T23:43:23.389Z,69.13
2024-03-04T23:45:52.195Z,66.22
2024-03-04T23:48:20.590Z,79.82
2024-03-04T23:50:48.581Z,77.45
2024-03-04T23:53:16.302Z,75.53
2024-03-04T23:55:43.421Z,68.60
2024-03-04T23:58:10.802Z,67.53
